Time,TemperatureF,DewpointF,PressureIn,WindDirection,WindDirectionDegrees,WindSpeedMPH,WindSpeedGustMPH,Humidity,HourlyPrecipIn,Conditions,Clouds,dailyrainin,SoftwareType,DateUTC
2013-11-30 00:00:00,23.0,16.0,29.98,North,350,26.0,41.0,74,-99.99,,,-99.99,,2013-11-30 09:00:00,
2013-11-30 00:53:00,23.0,16.0,29.98,North,350,26.0,41.0,74,-99.99,,,-99.99,,2013-11-30 09:53:00,
2013-11-30 01:00:00,23.0,17.0,30.00,North,360,37.0,46.0,77,-99.99,,,-99.99,,2013-11-30 10:00:00,
2013-11-30 01:53:00,23.0,17.0,30.00,North,360,37.0,46.0,77,-99.99,,,-99.99,,2013-11-30 10:53:00,
2013-11-30 02:00:00,23.0,17.0,30.01,North,10,30.0,46.0,77,-99.99,,,-99.99,,2013-11-30 11:00:00,
2013-11-30 02:52:00,23.0,17.0,30.01,North,10,30.0,46.0,77,-99.99,,,-99.99,,2013-11-30 11:52:00,
2013-11-30 03:00:00,22.0,13.0,30.02,NNW,340,32.0,44.0,67,-99.99,,,-99.99,,2013-11-30 12:00:00,
2013-11-30 03:52:00,22.0,13.0,30.02,NNW,340,32.0,44.0,67,-99.99,,,-99.99,,2013-11-30 12:52:00,
2013-11-30 04:00:00,21.0,14.0,30.04,North,350,32.0,44.0,73,-99.99,,,-99.99,,2013-11-30 13:00:00,
2013-11-30 04:52:00,21.0,14.0,30.04,North,350,32.0,44.0,73,-99.99,,,-99.99,,2013-11-30 13:52:00,
2013-11-30 05:00:00,21.0,14.0,30.05,NNW,340,33.0,45.0,73,-99.99,,,-99.99,,2013-11-30 14:00:00,
2013-11-30 05:52:00,21.0,14.0,30.05,NNW,340,33.0,45.0,73,-99.99,,,-99.99,,2013-11-30 14:52:00,
2013-11-30 06:00:00,21.0,15.0,30.06,NNW,340,33.0,45.0,77,-99.99,,,-99.99,,2013-11-30 15:00:00,
2013-11-30 06:53:00,21.0,15.0,30.06,NNW,340,33.0,45.0,77,-99.99,,,-99.99,,2013-11-30 15:53:00,
2013-11-30 07:00:00,21.0,15.0,30.06,North,10,40.0,52.0,77,-99.99,,,-99.99,,2013-11-30 16:00:00,
2013-11-30 07:52:00,21.0,15.0,30.06,North,10,40.0,52.0,77,-99.99,,,-99.99,,2013-11-30 16:52:00,
2013-11-30 08:00:00,21.0,14.0,30.06,North,350,40.0,55.0,73,-99.99,,,-99.99,,2013-11-30 17:00:00,
2013-11-30 08:53:00,21.0,14.0,30.06,North,350,40.0,55.0,73,-99.99,,,-99.99,,2013-11-30 17:53:00,
2013-11-30 09:00:00,21.0,11.0,30.04,North,360,44.0,58.0,64,-99.99,,,-99.99,,2013-11-30 18:00:00,
2013-11-30 09:52:00,21.0,11.0,30.04,North,360,44.0,58.0,64,-99.99,,,-99.99,,2013-11-30 18:52:00,
2013-11-30 10:00:00,20.0,12.0,30.05,North,360,47.0,66.0,70,-99.99,,,-99.99,,2013-11-30 19:00:00,
2013-11-30 10:52:00,20.0,12.0,30.05,North,360,47.0,66.0,70,-99.99,,,-99.99,,2013-11-30 19:52:00,
2013-11-30 11:00:00,20.0,12.0,30.07,North,350,38.0,63.0,70,-99.99,,,-99.99,,2013-11-30 20:00:00,
2013-11-30 11:52:00,20.0,12.0,30.07,North,350,38.0,63.0,70,-99.99,,,-99.99,,2013-11-30 20:52:00,
2013-11-30 12:00:00,19.0,11.0,30.05,North,360,45.0,63.0,70,-99.99,,,-99.99,,2013-11-30 21:00:00,
2013-11-30 12:53:00,19.0,11.0,30.05,North,360,45.0,63.0,70,-99.99,,,-99.99,,2013-11-30 21:53:00,
2013-11-30 13:00:00,20.0,10.0,30.05,NNW,330,51.0,71.0,64,-99.99,,,-99.99,,2013-11-30 22:00:00,
2013-11-30 13:52:00,20.0,10.0,30.05,NNW,330,51.0,71.0,64,-99.99,,,-99.99,,2013-11-30 22:52:00,
2013-11-30 14:00:00,20.0,13.0,30.04,North,360,48.0,69.0,73,-99.99,,,-99.99,,2013-11-30 23:00:00,
2013-11-30 14:53:00,20.0,13.0,30.04,North,360,48.0,69.0,73,-99.99,,,-99.99,,2013-11-30 23:53:00,
2013-11-30 15:00:00,19.0,11.0,30.03,North,10,48.0,74.0,70,-99.99,,,-99.99,,2013-12-01 00:00:00,
2013-11-30 15:51:00,19.0,11.0,30.03,North,10,48.0,74.0,70,-99.99,,,-99.99,,2013-12-01 00:51:00,
2013-11-30 16:00:00,19.0,12.0,30.03,North,360,54.0,77.0,73,-99.99,,,-99.99,,2013-12-01 01:00:00,
2013-11-30 16:52:00,19.0,12.0,30.03,North,360,54.0,77.0,73,-99.99,,,-99.99,,2013-12-01 01:52:00,
2013-11-30 17:00:00,19.0,11.0,30.02,North,360,55.0,77.0,70,-99.99,,,-99.99,,2013-12-01 02:00:00,
2013-11-30 17:52:00,19.0,11.0,30.02,North,360,55.0,77.0,70,-99.99,,,-99.99,,2013-12-01 02:52:00,
2013-11-30 18:00:00,-999.0,-99.9,30.07,North,360,53.0,77.0,-999,-99.99,,,-99.99,,2013-12-01 03:00:00,
2013-11-30 18:53:00,19.0,12.0,30.04,North,360,53.0,77.0,73,-99.99,,,-99.99,,2013-12-01 03:53:00,
2013-11-30 19:00:00,18.0,12.0,30.03,North,360,51.0,78.0,77,-99.99,,,-99.99,,2013-12-01 04:00:00,
2013-11-30 19:52:00,18.0,12.0,30.03,North,360,51.0,78.0,77,-99.99,,,-99.99,,2013-12-01 04:52:00,
2013-11-30 20:00:00,18.0,12.0,30.04,North,360,55.0,78.0,77,-99.99,,,-99.99,,2013-12-01 05:00:00,
2013-11-30 20:52:00,18.0,12.0,30.04,North,360,55.0,78.0,77,-99.99,,,-99.99,,2013-12-01 05:52:00,
2013-11-30 21:00:00,18.0,12.0,30.03,North,350,54.0,88.0,77,-99.99,,,-99.99,,2013-12-01 06:00:00,
2013-11-30 21:52:00,18.0,12.0,30.03,North,350,54.0,88.0,77,-99.99,,,-99.99,,2013-12-01 06:52:00,
2013-11-30 22:00:00,19.0,10.0,30.05,North,350,53.0,77.0,67,-99.99,,,-99.99,,2013-12-01 07:00:00,
2013-11-30 22:52:00,19.0,10.0,30.05,North,350,53.0,77.0,67,-99.99,,,-99.99,,2013-12-01 07:52:00,
2013-11-30 23:00:00,19.0,10.0,30.06,North,350,53.0,83.0,67,-99.99,,,-99.99,,2013-12-01 08:00:00,
2013-11-30 23:52:00,19.0,10.0,30.06,North,350,53.0,83.0,67,-99.99,,,-99.99,,2013-12-01 08:52:00,